Surface observations / UK / EGMC

Quebec | Canada | USA | France | UK | Europe | Elsewhere

Display: Info & Location for EGMC | Help decoding METAR

EGMC SOUTHEND-ON-SEA -- UK
Raw surface observations for station EGMC
EGMC 282020Z 23011KT CAVOK 17/14 Q1015=
EGMC 281950Z 23011KT CAVOK 18/14 Q1014=
EGMC 281920Z 22011KT 9999 FEW019 18/14 Q1014=
EGMC 281850Z 22013KT 9999 FEW027 19/14 Q1014=
EGMC 281820Z 22013KT 9999 FEW022 SCT027 19/14 Q1014=
EGMC 281750Z 21013KT 9999 FEW020 20/14 Q1014=
EGMC 281720Z 23015KT 9999 FEW025 21/14 Q1013=
EGMC 281650Z 22015KT 9999 FEW025 21/14 Q1013=
EGMC 281620Z 23016KT 9999 FEW027 SCT040 21/14 Q1013=
EGMC 281550Z 24017KT 9999 VCSH FEW027 SCT046 21/14 Q1013=
EGMC 281520Z 23016KT 9999 VCSH FEW025 SCT029 23/14 Q1013=
EGMC 281450Z 23016KT 9999 VCSH SCT029 22/14 Q1013=
EGMC 281420Z 23017KT 9999 VCSH FEW025 SCT030 21/13 Q1013=
EGMC 281350Z 23016KT 9999 FEW028 BKN045 22/14 Q1013=
EGMC 281320Z 22016KT 9999 SCT025 22/14 Q1013=
EGMC 281250Z 23019KT 9999 VCSH FEW020 SCT048 22/14 Q1013=
EGMC 281220Z 22015KT 9999 VCSH FEW012 SCT030 23/16 Q1012=
EGMC 281150Z 23021KT 9999 -SHRA FEW012 BKN030 18/13 Q1012=
EGMC 281120Z 24014KT 9999 FEW027 SCT030 22/13 Q1012=
EGMC 281050Z 23014KT 9999 FEW025 BKN030 22/14 Q1012=
EGMC 281020Z 23015KT 9999 FEW025 BKN028 21/14 Q1012=
EGMC 280950Z 24015KT 9999 SCT024 22/14 Q1012=
EGMC 280920Z 24012KT 9999 SCT023 20/13 Q1012=
EGMC 280850Z 23016KT 9999 SCT023 21/14 Q1012=
EGMC 280820Z 24012KT 9999 FEW020 20/14 Q1012=
EGMC 280750Z 23012KT 9999 FEW020 20/14 Q1012=
EGMC 280720Z 24011KT 9999 FEW016 19/14 Q1012=
EGMC 280620Z 24010KT 9999 FEW016 17/12 Q1012=
EGMC 280550Z 24011KT 9999 FEW020 18/13 Q1012=
EGMC 280520Z 23009KT 9999 FEW020 17/13 Q1011=
EGMC 280450Z 23009KT 9999 SCT012 18/15 Q1011=
EGMC 280350Z 21004KT 9999 FEW039 SCT046 19/16 Q1011=
EGMC 280220Z 21004KT 9999 SCT042 20/17 Q1011=
EGMC 280050Z 00000KT CAVOK 17/16 Q1011=
EGMC 272350Z 00000KT CAVOK 17/15 Q1011=
EGMC 272320Z 18005KT CAVOK 18/15 Q1012=
EGMC 272150Z 25005KT CAVOK 19/17 Q1012=
EGMC 272120Z 29002KT CAVOK 17/15 Q1012=
EGMC 272050Z 26003KT CAVOK 19/15 Q1012=
EGMC 272020Z 00000KT CAVOK 20/17 Q1012=